Latest Weather Observations for Leonora Airport

IDW60801

Issued at 7:03 pm WST Monday 2 March 2015 (issued every 30 minutes, with the page automatically refreshed every 10 minutes)

About weather observations | Map of weather stations | Latest weather observations for WA | Other Formats
Station Details ID: 012241 Name: LEONORA AERO Lat: -28.88 Lon: 121.32 Height: 370.0 m
Data from the previous 72 hours. | See also: Recent months for locations in Western Australia
Date/Time
WST
Temp
°C
App
Temp
°C
Dew
Point
Rel
Hum
%
Delta-T
°C
Wind Press
QNH
hPa
Press
MSL
hPa
Rain
since 9 am
mm
Dir
 
Spd
km/h
Gust
km/h
Spd
kts
Gust
kts
02/07:00pm 20.4 18.7 16.2 77 2.6 ESE 20 30 11 16 1014.2 1012.1 0.2
02/06:30pm 20.8 19.3 16.4 76 2.7 SE 19 28 10 15 1013.8 1011.7 0.2
02/06:00pm 20.9 19.2 16.3 75 2.8 ESE 20 32 11 17 1013.1 1011.0 0.2
02/05:30pm 21.0 19.6 16.6 76 2.7 ESE 19 26 10 14 1012.9 1010.8 0.2
02/05:00pm 21.0 19.7 16.8 77 2.6 ESE 19 26 10 14 1012.7 1010.6 0.2
02/04:30pm 20.9 18.7 16.9 78 2.5 ESE 24 32 13 17 1012.3 1010.2 0.2
02/04:19pm 21.1 18.8 16.7 76 2.7 E 24 32 13 17 1012.1 1010.0 0.2
02/04:00pm 21.2 20.1 17.2 78 2.5 ESE 19 26 10 14 1012.1 1010.0 0.2
02/03:54pm 21.0 19.9 17.4 80 2.2 ESE 19 28 10 15 1012.2 1010.1 0.2
02/03:49pm 21.0 19.8 17.0 78 2.5 ESE 19 28 10 15 1012.2 1010.1 0.2
02/03:37pm 20.5 19.1 16.9 80 2.2 E 20 30 11 16 1012.1 1010.0 0.2
02/03:30pm 20.6 19.4 17.0 80 2.2 ESE 19 26 10 14 1012.2 1010.1 0.2
02/03:00pm 20.0 19.4 17.6 86 1.5 ESE 17 24 9 13 1012.4 1010.4 0.0
02/02:30pm 19.7 18.8 16.9 84 1.7 ESE 17 24 9 13 1012.8 1010.7 0.0
02/02:00pm 20.8 19.5 16.8 78 2.5 ESE 19 28 10 15 1012.7 1010.6 0.0
02/01:30pm 20.6 19.0 16.0 75 2.8 SE 19 28 10 15 1012.7 1010.6 0.0
02/01:15pm 20.7 19.0 16.3 76 2.7 ESE 20 28 11 15 1012.7 1010.6 0.0
02/01:00pm 20.3 18.5 16.1 77 2.6 SE 20 30 11 16 1012.7 1010.6 0.0
02/12:30pm 20.1 18.5 16.5 80 2.2 ESE 20 28 11 15 1012.6 1010.5 0.0
02/12:00pm 19.3 17.2 16.3 83 1.8 ESE 22 28 12 15 1012.6 1010.5 0.0
02/11:30am 19.1 17.0 16.1 83 1.8 ESE 22 28 12 15 1012.8 1010.7 0.0
02/11:00am 19.1 17.2 15.8 81 2.0 ESE 20 30 11 16 1013.3 1011.2 0.0
02/10:30am 18.5 16.9 15.9 85 1.6 ESE 19 28 10 15 1013.2 1011.1 0.0
02/10:07am 18.0 16.9 16.3 90 1.0 SE 17 22 9 12 1013.2 1011.1 0.0
02/10:00am 17.7 16.2 16.4 92 0.8 SE 19 28 10 15 1013.3 1011.2 0.0
02/09:46am 17.4 16.2 16.1 92 0.8 SE 17 26 9 14 1013.3 1011.2 0.0
02/09:44am 17.4 16.2 16.1 92 0.8 SSE 17 26 9 14 1013.4 1011.3 0.0
02/09:30am 17.4 17.0 16.3 93 0.7 SE 13 24 7 13 1013.1 1011.0 0.0
02/09:28am 17.5 17.2 16.4 93 0.7 SE 13 19 7 10 1013.1 1011.0 0.0
02/09:00am 17.4 15.8 16.1 92 0.8 SE 19 26 10 14 1013.0 1010.9 24.8
02/08:30am 17.3 15.6 15.8 91 0.9 SE 19 24 10 13 1012.6 1010.5 24.8
02/08:00am 17.4 16.4 15.7 90 1.0 SE 15 22 8 12 1012.3 1010.2 24.8
02/07:30am 17.4 16.8 15.7 90 1.0 SE 13 17 7 9 1012.2 1010.1 24.8
02/07:00am 17.4 17.7 15.9 91 0.9 SE 9 13 5 7 1011.6 1009.5 24.8
02/06:30am 17.2 15.9 15.9 92 0.8 ENE 17 28 9 15 1010.8 1008.7 24.8
02/06:00am 16.9 13.9 15.8 93 0.7 ENE 26 35 14 19 1009.0 1006.9 24.8
02/05:30am 16.8 13.8 15.8 94 0.6 ENE 26 37 14 20 1009.0 1006.9 24.8
02/05:25am 16.8 13.8 15.8 94 0.6 ENE 26 37 14 20 1009.0 1006.9 24.8
02/05:00am 16.7 14.1 15.9 95 0.5 E 24 32 13 17 1009.4 1007.3 24.8
02/04:30am 16.7 15.4 15.9 95 0.5 ESE 17 20 9 11 1010.1 1008.0 24.8
02/04:11am 16.8 16.0 16.0 95 0.5 ESE 15 19 8 10 1010.6 1008.5 24.8
02/04:00am 16.8 16.3 15.8 94 0.6 ESE 13 19 7 10 1011.0 1008.9 24.6
02/03:57am 16.8 17.0 15.8 94 0.6 ESE 9 17 5 9 1011.2 1009.1 24.6
02/03:30am 17.0 18.6 16.0 94 0.6 E 2 6 1 3 1012.3 1010.2 22.0
02/03:18am 17.0 18.2 16.0 94 0.6 N 4 7 2 4 1012.1 1010.0 21.2
02/03:09am 16.9 17.5 15.9 94 0.6 NE 7 9 4 5 1011.9 1009.8 20.8
02/03:00am 16.9 17.5 15.9 94 0.6 E 7 11 4 6 1011.7 1009.6 20.4
02/02:30am 16.9 16.4 15.8 93 0.7 E 13 17 7 9 1011.6 1009.5 19.2
02/02:03am 16.9 16.4 15.8 93 0.7 ENE 13 19 7 10 1011.5 1009.4 18.8
02/02:00am 16.8 15.8 15.7 93 0.7 NE 15 19 8 10 1011.5 1009.4 18.6
02/01:30am 17.1 17.6 15.6 91 0.9 E 7 9 4 5 1012.0 1009.9 16.4
02/01:29am 17.2 17.8 15.7 91 0.9 E 7 9 4 5 1012.0 1009.9 16.4
02/01:20am 17.1 17.2 15.4 90 1.0 E 9 11 5 6 1012.0 1009.9 15.8
02/01:00am 17.4 16.7 15.4 88 1.2 ESE 13 17 7 9 1012.3 1010.2 15.2
02/12:30am 17.7 16.5 15.1 85 1.5 SE 15 20 8 11 1012.0 1009.9 15.0
 
Date/Time
WST
Temp
°C
App
Temp
°C
Dew
Point
Rel
Hum
%
Delta-T
°C
Wind Press
QNH
hPa
Press
MSL
hPa
Rain
since 9 am
mm
Dir
 
Spd
km/h
Gust
km/h
Spd
kts
Gust
kts
01/11:30pm 17.8 17.0 15.2 85 1.5 SSE 13 20 7 11 1012.9 1010.8 15.0
01/11:00pm 17.8 17.1 15.4 86 1.4 SE 13 19 7 10 1013.1 1011.0 15.0
01/10:30pm 17.8 17.6 15.6 87 1.3 SE 11 13 6 7 1013.3 1011.2 15.0
01/10:00pm 17.8 18.0 15.8 88 1.2 SE 9 11 5 6 1013.5 1011.4 15.0
01/09:30pm 17.6 17.1 15.8 89 1.1 ESE 13 17 7 9 1013.2 1011.1 15.0
01/09:19pm 17.5 16.6 15.8 90 1.0 ESE 15 20 8 11 1013.2 1011.1 15.0
01/09:00pm 17.4 16.4 15.7 90 1.0 ESE 15 20 8 11 1013.3 1011.2 15.0
01/08:30pm 17.2 15.8 15.5 90 1.0 ESE 17 24 9 13 1012.9 1010.8 15.0
01/08:00pm 17.4 16.8 15.7 90 1.0 SE 13 20 7 11 1012.8 1010.7 15.0
01/07:30pm 18.1 16.1 15.0 82 1.8 ESE 19 28 10 15 1012.3 1010.2 14.8
01/07:00pm 18.3 16.7 15.0 81 2.0 ESE 17 22 9 12 1011.8 1009.7 14.8
01/06:30pm 18.2 15.9 14.7 80 2.1 E 20 28 11 15 1011.2 1009.1 14.8
01/06:00pm 18.2 15.8 14.5 79 2.2 ESE 20 28 11 15 1011.1 1009.0 14.8
01/05:30pm 18.4 15.6 14.3 77 2.4 E 22 30 12 16 1010.9 1008.8 14.8
01/05:00pm 18.5 15.7 14.4 77 2.4 E 22 28 12 15 1010.9 1008.8 14.8
01/04:30pm 18.8 16.4 14.5 76 2.5 ENE 20 28 11 15 1011.3 1009.2 14.8
01/04:17pm 18.7 15.9 14.4 76 2.5 ENE 22 32 12 17 1011.2 1009.1 14.8
01/04:00pm 18.9 15.2 15.0 78 2.3 ENE 28 37 15 20 1010.8 1008.7 14.8
01/03:30pm 18.4 16.0 15.5 83 1.7 E 22 28 12 15 1011.1 1009.0 14.8
01/03:00pm 17.8 15.0 15.4 86 1.4 E 24 32 13 17 1011.3 1009.2 14.8
01/02:30pm 17.6 15.6 15.0 85 1.5 E 19 24 10 13 1011.9 1009.8 14.8
01/02:00pm 17.7 15.7 15.5 87 1.3 E 20 30 11 16 1012.7 1010.6 14.8
01/01:44pm 17.6 15.0 15.0 85 1.5 E 22 32 12 17 1012.8 1010.7 14.8
01/01:30pm 17.8 14.7 15.6 87 1.3 E 26 35 14 19 1012.7 1010.6 14.8
01/01:00pm 17.3 14.7 15.8 91 0.9 E 24 33 13 18 1013.3 1011.2 14.8
01/12:52pm 17.3 14.8 16.2 93 0.7 E 24 33 13 18 1013.5 1011.4 14.8
01/12:34pm 16.6 13.9 15.6 94 0.6 E 24 30 13 16 1014.0 1011.9 14.6
01/12:30pm 16.6 13.9 15.6 94 0.6 E 24 30 13 16 1014.0 1011.9 13.6
01/12:27pm 16.5 13.8 15.5 94 0.6 E 24 30 13 16 1014.1 1012.0 13.6
01/12:26pm 16.5 13.8 15.5 94 0.6 E 24 30 13 16 1014.1 1012.0 13.6
01/12:00pm 16.0 13.8 15.0 94 0.6 ESE 20 28 11 15 1014.8 1012.7 11.2
01/11:47am 16.4 14.5 15.3 93 0.6 SE 19 24 10 13 1015.2 1013.2 4.8
01/11:30am 16.4 15.3 15.3 93 0.6 SE 15 22 8 12 1015.6 1013.5 3.8
01/11:23am 16.5 15.4 15.4 93 0.7 SE 15 20 8 11 1015.6 1013.5 3.8
01/11:20am 16.5 15.4 15.2 92 0.8 ESE 15 20 8 11 1015.6 1013.5 3.6
01/11:05am 16.4 14.8 14.9 91 0.9 ESE 17 22 9 12 1015.7 1013.6 3.4
01/11:00am 16.6 15.0 15.1 91 0.9 ESE 17 24 9 13 1015.8 1013.7 3.4
01/10:30am 16.8 15.2 15.0 89 1.1 ESE 17 22 9 12 1016.0 1013.9 3.0
01/10:12am 16.9 15.3 14.9 88 1.2 E 17 22 9 12 1016.0 1013.9 2.8
01/10:00am 17.2 15.2 15.0 87 1.3 ENE 19 26 10 14 1016.0 1013.9 2.6
01/09:52am 17.5 15.5 15.0 85 1.5 ENE 19 26 10 14 1016.0 1013.9 2.0
01/09:30am 18.4 16.7 14.7 79 2.2 ENE 17 26 9 14 1015.9 1013.8 0.4
01/09:00am 19.8 16.7 13.5 67 3.7 ENE 22 30 12 16 1015.6 1013.5 0.0
01/08:30am 21.2 17.9 11.5 54 5.5 E 20 30 11 16 1015.1 1013.1 0.0
01/08:00am 21.4 18.1 11.7 54 5.5 E 20 26 11 14 1015.0 1013.0 0.0
01/07:30am 21.3 17.6 11.6 54 5.5 E 22 28 12 15 1014.9 1012.4 0.0
01/07:00am 21.5 17.8 11.5 53 5.7 E 22 33 12 18 1014.5 1012.0 0.0
01/06:30am 21.5 18.4 11.5 53 5.7 E 19 26 10 14 1014.2 1011.7 0.0
01/06:00am 21.5 18.2 11.5 53 5.7 E 20 30 11 16 1014.0 1011.5 0.0
01/05:30am 21.7 18.5 12.0 54 5.5 E 20 30 11 16 1013.9 1011.4 0.0
01/05:00am 22.0 18.8 12.0 53 5.7 E 20 30 11 16 1013.5 1011.0 0.0
01/04:30am 22.4 18.6 12.4 53 5.8 E 24 33 13 18 1013.4 1010.9 0.0
01/04:00am 22.7 18.9 12.3 52 6.0 E 24 32 13 17 1013.3 1010.8 0.0
01/03:30am 22.9 20.5 12.5 52 6.0 E 17 24 9 13 1013.4 1010.9 0.0
01/03:00am 23.7 20.3 13.8 53 5.9 ENE 24 35 13 19 1013.1 1010.6 0.0
01/02:30am 23.9 20.2 14.0 54 5.9 ENE 26 37 14 20 1013.0 1010.4 0.0
01/02:00am 24.1 20.5 14.2 54 5.9 ENE 26 35 14 19 1012.9 1010.3 0.0
01/01:30am 24.3 20.8 14.4 54 6.0 ENE 26 35 14 19 1013.1 1010.6 0.0
01/01:00am 24.5 21.4 14.6 54 6.0 ENE 24 35 13 19 1013.2 1010.7 0.0
01/12:30am 24.8 21.8 14.9 54 6.0 ENE 24 37 13 20 1013.2 1010.7 0.0
01/12:00am 25.0 22.1 15.0 53 6.1 ENE 24 37 13 20 1013.6 1011.1 0.0
 
Date/Time
WST
Temp
°C
App
Temp
°C
Dew
Point
Rel
Hum
%
Delta-T
°C
Wind Press
QNH
hPa
Press
MSL
hPa
Rain
since 9 am
mm
Dir
 
Spd
km/h
Gust
km/h
Spd
kts
Gust
kts
28/11:30pm 25.2 22.6 14.9 52 6.3 ENE 22 33 12 18 1013.6 1011.1 0.0
28/11:00pm 25.4 21.6 14.8 52 6.4 ENE 28 37 15 20 1013.1 1010.6 0.0
28/10:30pm 25.8 22.2 15.2 52 6.5 E 28 41 15 22 1012.9 1010.3 0.0
28/10:00pm 26.1 23.0 15.5 52 6.5 ENE 26 35 14 19 1013.2 1010.7 0.0
28/09:30pm 26.4 24.1 15.8 52 6.6 ENE 22 30 12 16 1013.5 1011.0 0.0
28/09:00pm 26.7 23.6 15.7 51 6.8 ENE 26 37 14 20 1013.5 1011.0 0.0
28/08:30pm 26.8 23.9 16.1 52 6.7 ENE 26 33 14 18 1013.1 1010.6 0.0
28/08:00pm 27.2 23.2 16.2 51 6.9 E 32 41 17 22 1012.7 1010.1 0.0
28/07:30pm 27.6 24.7 16.2 49 7.1 E 26 37 14 20 1012.6 1010.0 0.0
28/07:00pm 27.8 25.4 16.4 50 7.2 E 24 33 13 18 1012.0 1009.5 0.0
28/06:30pm 28.0 25.6 16.3 49 7.4 ESE 24 35 13 19 1011.7 1009.2 0.0
28/06:00pm 28.2 25.8 16.5 49 7.4 E 24 32 13 17 1011.5 1009.0 0.0
28/05:30pm 28.6 26.2 16.5 48 7.6 ESE 24 32 13 17 1011.5 1009.0 0.0
28/05:00pm 29.2 27.2 16.4 46 8.1 ESE 22 32 12 17 1011.7 1009.2 0.0
28/04:30pm 29.1 27.4 16.3 46 8.1 SE 20 32 11 17 1011.9 1009.4 0.0
28/04:00pm 29.2 26.8 16.4 46 8.1 ESE 24 32 13 17 1011.9 1009.4 0.0
28/03:30pm 29.7 27.7 16.5 45 8.4 SE 22 30 12 16 1011.8 1009.3 0.0
28/03:00pm 29.8 27.9 16.6 45 8.4 SE 22 32 12 17 1012.0 1009.5 0.0
28/02:30pm 29.0 27.3 16.2 46 8.1 ESE 20 32 11 17 1012.4 1009.9 0.0
28/02:00pm 29.7 27.7 16.5 45 8.4 SE 22 35 12 19 1012.7 1010.1 0.0
28/01:30pm 29.6 28.5 16.4 45 8.4 ESE 17 28 9 15 1013.0 1010.4 0.0
28/01:00pm 30.1 29.2 16.9 45 8.4 ESE 17 24 9 13 1013.3 1010.8 0.0
28/12:30pm 28.2 26.6 16.1 47 7.6 ESE 19 24 10 13 1013.7 1011.2 0.0
28/12:00pm 28.3 26.6 16.2 47 7.6 ESE 20 32 11 17 1013.8 1011.3 0.0
28/11:30am 27.4 25.8 16.1 50 7.1 ESE 19 28 10 15 1014.0 1011.5 0.0
28/11:00am 26.7 24.9 16.0 52 6.7 ESE 20 28 11 15 1014.3 1011.8 0.0
28/10:30am 27.4 25.6 17.0 53 6.6 ESE 22 32 12 17 1014.4 1011.9 0.0
28/10:00am 27.1 25.2 16.7 53 6.6 ESE 22 35 12 19 1014.2 1011.7 0.0
28/09:30am 26.3 24.3 16.5 54 6.1 ESE 22 35 12 19 1014.0 1011.5 0.0
28/09:00am 25.4 22.7 16.5 58 5.6 ESE 26 35 14 19 1013.8 1011.3 0.2
28/08:30am 25.1 22.9 17.0 60 5.1 ESE 24 32 13 17 1013.6 1011.1 0.2
28/08:00am 24.6 22.4 16.8 62 4.9 ESE 24 35 13 19 1013.4 1010.9 0.2
28/07:30am 24.3 22.1 16.8 63 4.7 ESE 24 39 13 21 1013.0 1010.4 0.2
28/07:00am 24.3 22.2 17.1 64 4.5 ESE 24 35 13 19 1012.4 1009.9 0.2
28/06:30am 24.3 22.4 16.8 63 4.7 SE 22 33 12 18 1012.0 1009.5 0.2
28/06:00am 24.1 21.9 16.9 64 4.5 SE 24 35 13 19 1011.5 1009.0 0.2
28/05:30am 24.1 21.6 17.1 65 4.4 SE 26 39 14 21 1011.1 1008.6 0.2
28/05:00am 24.4 21.7 17.6 66 4.3 SE 28 39 15 21 1010.8 1008.3 0.2
28/04:30am 24.9 23.2 18.1 66 4.3 SE 24 35 13 19 1010.3 1007.7 0.2
28/04:00am 25.5 24.3 18.4 65 4.6 SE 22 33 12 18 1010.1 1007.5 0.2
28/03:30am 25.4 28.5 21.1 77 2.9 SSE 6 9 3 5 1009.8 1007.2 0.2
28/03:00am 25.4 27.9 21.1 77 2.9 S 9 13 5 7 1009.5 1007.0 0.2
28/02:30am 25.4 28.1 21.3 78 2.7 SSW 9 15 5 8 1009.5 1007.0 0.2
28/02:00am 25.2 27.9 21.3 79 2.6 NW 9 13 5 7 1009.1 1006.6 0.2
28/01:30am 25.4 27.2 21.1 77 2.9 WNW 13 19 7 10 1009.3 1006.8 0.2
28/01:00am 25.6 26.9 20.8 75 3.2 WNW 15 22 8 12 1009.2 1006.7 0.2
28/12:30am 25.9 26.2 20.7 73 3.5 NW 20 28 11 15 1009.3 1006.8 0.2
28/12:00am 26.1 26.5 20.9 73 3.5 NW 20 30 11 16 1009.4 1006.9 0.2
 
Date/Time
WST
Temp
°C
App
Temp
°C
Dew
Point
Rel
Hum
%
Delta-T
°C
Wind Press
QNH
hPa
Press
MSL
hPa
Rain
since 9 am
mm
Dir
 
Spd
km/h
Gust
km/h
Spd
kts
Gust
kts
27/11:30pm 26.3 27.7 21.1 73 3.5 NNW 15 20 8 11 1009.9 1007.3 0.2
27/11:00pm 26.6 27.0 20.7 70 3.9 NW 19 28 10 15 1010.1 1007.5 0.2
27/10:30pm 27.0 27.2 20.6 68 4.3 NNW 20 30 11 16 1010.2 1007.6 0.2
27/10:00pm 27.6 29.7 20.2 64 4.9 NNE 9 13 5 7 1009.6 1007.1 0.2
27/09:30pm 28.0 31.2 20.6 64 4.9 ENE 4 9 2 5 1009.3 1006.8 0.2
27/09:00pm 27.8 29.7 20.6 65 4.8 N 11 15 6 8 1008.6 1006.1 0.2
27/08:30pm 27.8 28.3 20.1 63 5.1 N 17 28 9 15 1008.1 1005.5 0.2
27/08:00pm 28.0 27.4 19.8 61 5.4 N 22 32 12 17 1007.5 1004.9 0.2
27/07:30pm 28.4 27.5 19.9 60 5.6 N 24 33 13 18 1006.6 1004.1 0.2

Other Formats:

Comma delimited format used in spreadsheet applications
http://www.bom.gov.au/fwo/IDW60801/IDW60801.94450.axf

JavaScript Object Notation format (JSON) in row-major order
http://www.bom.gov.au/fwo/IDW60801/IDW60801.94450.json